Time;durP1;ratioP1;P1;durP2;ratioP2;P2;SDS_P1;SDS_P2;PMS_P1;PMS_P2;Temp;Humidity;BMP_temperature;BMP_pressure;BME280_temperature;BME280_humidity;BME280_pressure;Samples;Min_cycle;Max_cycle;Signal;HPM_P1;HPM_P2
2021/12/25 00:02:26;;;;;;;;;41.25;34.25;;;;;12.68;71.62;99950.03;5081133;28;45256;-69
2021/12/25 00:04:51;;;;;;;;;38.50;34.00;;;;;12.70;71.62;99963.34;5068999;28;45394;-69
2021/12/25 00:07:17;;;;;;;;;38.25;32.50;;;;;12.70;71.64;99964.19;5081204;28;47326;-69
2021/12/25 00:09:42;;;;;;;;;36.25;32.75;;;;;12.70;71.87;99964.19;5081324;28;45349;-69
2021/12/25 00:12:08;;;;;;;;;39.00;35.25;;;;;12.72;71.63;99962.28;5080876;27;45459;-69
2021/12/25 00:14:33;;;;;;;;;35.75;32.00;;;;;12.71;71.44;99955.22;5081325;28;45576;-68
2021/12/25 00:17:00;;;;;;;;;33.25;32.50;;;;;12.68;71.68;99947.34;5065979;27;47145;-69
2021/12/25 00:19:25;;;;;;;;;36.75;34.75;;;;;12.69;71.68;99951.75;5081124;28;45307;-69
2021/12/25 00:21:51;;;;;;;;;41.50;34.50;;;;;12.67;71.59;99948.28;5081139;28;45315;-69
2021/12/25 00:24:16;;;;;;;;;34.75;32.25;;;;;12.64;71.72;99944.91;5081162;28;45399;-69
2021/12/25 00:29:31;;;;;;;;;39.00;33.75;;;;;12.64;71.76;99934.19;5080928;28;45526;-69
2021/12/25 00:32:13;;;;;;;;;29.00;29.00;;;;;12.64;71.65;99937.72;5080875;28;45578;-69
2021/12/25 00:34:39;;;;;;;;;34.75;31.25;;;;;12.63;72.04;99925.31;5080970;28;45429;-69
2021/12/25 00:37:06;;;;;;;;;37.00;30.50;;;;;12.64;71.63;99921.66;5080848;28;46692;-69
2021/12/25 00:39:31;;;;;;;;;30.00;30.00;;;;;12.65;71.58;99928.75;5080913;27;45251;-69
2021/12/25 00:41:58;;;;;;;;;34.75;30.00;;;;;12.63;71.62;99922.63;5080778;27;45418;-69
2021/12/25 00:44:24;;;;;;;;;35.00;28.50;;;;;12.65;71.73;99915.38;5072075;28;45513;-69
2021/12/25 00:46:50;;;;;;;;;32.00;28.25;;;;;12.65;71.52;99914.53;5080310;27;46961;-69
2021/12/25 00:49:15;;;;;;;;;30.00;25.50;;;;;12.63;71.73;99903.00;5080681;28;45437;-69
2021/12/25 00:51:41;;;;;;;;;27.00;24.00;;;;;12.62;71.71;99901.31;5079426;28;45363;-69
2021/12/25 00:54:06;;;;;;;;;27.00;23.25;;;;;12.63;71.67;99906.56;5080434;28;45466;-69
2021/12/25 00:56:32;;;;;;;;;25.25;23.50;;;;;12.64;71.61;99916.31;5080327;28;46531;-69
2021/12/25 00:58:57;;;;;;;;;22.50;21.75;;;;;12.64;71.78;99912.78;5080794;28;45395;-69
2021/12/25 01:01:22;;;;;;;;;19.25;18.50;;;;;12.64;71.59;99924.34;5080236;28;45275;-69
2021/12/25 01:03:48;;;;;;;;;20.00;18.25;;;;;12.66;71.52;99921.59;5078069;27;45511;-69
2021/12/25 01:06:14;;;;;;;;;18.75;18.00;;;;;12.65;71.49;99911.84;5080473;28;47338;-69
2021/12/25 01:08:39;;;;;;;;;19.75;18.50;;;;;12.54;71.74;99893.66;5080689;28;45340;-69
2021/12/25 01:11:05;;;;;;;;;24.00;19.50;;;;;12.67;71.45;99909.94;5080129;28;45512;-69
2021/12/25 01:13:36;;;;;;;;;20.25;19.25;;;;;12.66;71.45;99913.56;5080293;28;45295;-69
2021/12/25 01:19:05;;;;;;;;;17.50;16.50;;;;;12.65;71.55;99920.72;5080221;28;45596;-69
2021/12/25 01:49:55;;;;;;;;;22.00;21.50;;;;;12.58;71.17;99936.25;5079664;27;45465;-69
2021/12/25 01:52:26;;;;;;;;;23.50;19.25;;;;;12.58;71.05;99940.75;5079721;28;45372;-69
2021/12/25 01:54:53;;;;;;;;;23.00;21.25;;;;;12.55;71.10;99933.75;5079993;28;45211;-69
2021/12/25 01:57:18;;;;;;;;;22.50;22.00;;;;;12.58;71.01;99938.09;5079564;28;47255;-69
2021/12/25 01:59:44;;;;;;;;;23.50;22.50;;;;;12.57;71.20;99937.19;5079604;28;45291;-69
2021/12/25 02:02:09;;;;;;;;;21.50;20.75;;;;;12.57;70.94;99931.00;5079009;28;45311;-69
2021/12/25 02:04:35;;;;;;;;;28.25;23.75;;;;;12.52;70.83;99927.69;5081648;27;45355;-69
2021/12/25 02:07:01;;;;;;;;;20.75;20.50;;;;;12.53;71.08;99938.31;5083169;28;45903;-69
2021/12/25 02:09:27;;;;;;;;;24.50;20.25;;;;;12.52;70.90;99938.41;5083004;28;45313;-69
2021/12/25 02:11:53;;;;;;;;;24.75;22.25;;;;;12.51;70.99;99936.66;5082826;27;45434;-69
2021/12/25 02:14:18;;;;;;;;;23.75;23.00;;;;;12.41;70.77;99926.47;5083016;27;45281;-69
2021/12/25 02:17:14;;;;;;;;;20.00;20.00;;;;;12.49;70.87;99936.75;5082754;28;46317;-69
2021/12/25 02:19:38;;;;;;;;;21.50;21.25;;;;;12.46;71.02;99928.88;5082749;28;45314;-69
2021/12/25 02:22:04;;;;;;;;;26.00;24.75;;;;;12.47;70.94;99929.75;5083070;28;45446;-69
2021/12/25 02:24:30;;;;;;;;;22.00;19.50;;;;;12.48;70.72;99942.16;5083075;27;45278;-69
2021/12/25 02:26:56;;;;;;;;;24.00;21.00;;;;;12.46;70.61;99934.22;5082523;28;46370;-69
2021/12/25 02:29:21;;;;;;;;;27.75;25.50;;;;;12.42;70.67;99935.34;5082855;28;45635;-69
2021/12/25 02:31:47;;;;;;;;;24.25;22.25;;;;;12.42;70.65;99938.88;5082440;28;45370;-69
2021/12/25 02:34:14;;;;;;;;;22.50;20.50;;;;;12.42;70.95;99935.34;5083017;28;45315;-69
2021/12/25 02:36:40;;;;;;;;;20.00;18.50;;;;;12.38;70.51;99939.16;5082453;28;45393;-69
2021/12/25 02:39:05;;;;;;;;;20.75;19.75;;;;;12.37;70.97;99935.56;5082923;27;45582;-69
2021/12/25 02:41:30;;;;;;;;;26.25;21.75;;;;;12.37;70.81;99935.56;5082711;28;45336;-69
2021/12/25 02:43:56;;;;;;;;;27.50;23.25;;;;;12.36;70.86;99932.97;5082775;28;45465;-69
2021/12/25 02:46:22;;;;;;;;;19.00;18.50;;;;;12.36;70.99;99928.50;5082191;28;46635;-69
2021/12/25 02:48:47;;;;;;;;;16.50;16.25;;;;;12.37;70.69;99935.56;5082513;27;45528;-69
2021/12/25 02:51:13;;;;;;;;;21.75;17.50;;;;;12.35;71.11;99928.59;5082493;27;45367;-69
2021/12/25 02:53:39;;;;;;;;;22.00;20.25;;;;;12.38;71.05;99931.97;5082421;27;45198;-69
2021/12/25 02:56:05;;;;;;;;;20.75;19.25;;;;;12.38;70.83;99925.75;5082240;28;46568;-69
2021/12/25 02:58:31;;;;;;;;;19.00;18.50;;;;;12.36;71.02;99923.16;5082705;28;45528;-69
2021/12/25 03:01:17;;;;;;;;;21.75;17.00;;;;;12.36;71.11;99920.50;5082338;28;45209;-69
2021/12/25 03:03:43;;;;;;;;;20.25;17.75;;;;;12.36;71.09;99923.16;5080071;28;45427;-69
2021/12/25 03:06:10;;;;;;;;;21.25;19.75;;;;;12.33;71.17;99914.41;5082113;28;45390;-69
2021/12/25 03:08:36;;;;;;;;;21.75;18.75;;;;;12.37;71.09;99922.19;5082360;28;45559;-69
2021/12/25 03:11:06;;;;;;;;;16.00;15.00;;;;;12.36;71.14;99928.50;5082051;28;45379;-69
2021/12/25 03:13:41;;;;;;;;;18.50;16.50;;;;;12.35;70.94;99931.28;5081073;28;45504;-69
2021/12/25 03:16:07;;;;;;;;;21.00;17.25;;;;;12.35;71.27;99931.28;5081977;28;45360;-69
2021/12/25 03:18:39;;;;;;;;;18.50;18.50;;;;;12.35;71.33;99925.91;5082111;28;45379;-69
2021/12/25 03:21:06;;;;;;;;;22.25;19.75;;;;;12.32;71.09;99926.06;5082106;28;45327;-69
2021/12/25 03:23:33;;;;;;;;;20.50;20.25;;;;;12.38;71.40;99928.44;5082040;28;45327;-69
2021/12/25 03:26:00;;;;;;;;;16.25;15.75;;;;;12.38;71.33;99933.78;5081735;28;47691;-69
2021/12/25 03:28:32;;;;;;;;;19.00;18.00;;;;;12.37;71.41;99934.72;5081835;27;45366;-69
2021/12/25 03:31:04;;;;;;;;;20.75;17.25;;;;;12.38;71.29;99925.75;5081680;28;45473;-69
2021/12/25 03:33:31;;;;;;;;;21.00;18.25;;;;;12.37;71.35;99924.88;5081724;27;45224;-69
2021/12/25 03:35:57;;;;;;;;;18.75;18.25;;;;;12.39;71.40;99928.31;5081946;28;45319;-69
2021/12/25 03:38:23;;;;;;;;;19.25;18.25;;;;;12.37;71.42;99937.41;5081405;27;45596;-69
2021/12/25 03:40:50;;;;;;;;;18.00;17.00;;;;;12.39;71.20;99944.38;5081993;28;45378;-69
2021/12/25 03:43:17;;;;;;;;;17.00;15.50;;;;;12.43;71.45;99942.44;5081785;27;45452;-69
2021/12/25 03:45:44;;;;;;;;;20.75;19.75;;;;;12.42;71.19;99940.69;5081493;28;45360;-69
2021/12/25 03:48:41;;;;;;;;;22.00;18.25;;;;;12.43;71.21;99945.13;5081445;27;45232;-69
2021/12/25 03:59:03;;;;;;;;;22.75;19.00;;;;;12.42;71.25;99946.91;5081599;28;45215;-69
2021/12/25 04:06:30;;;;;;;;;22.25;22.25;;;;;12.45;71.48;99953.91;5069114;27;46143;-69
2021/12/25 04:08:57;;;;;;;;;23.75;20.50;;;;;12.42;71.34;99951.41;5081225;28;45315;-69
2021/12/25 04:11:32;;;;;;;;;23.75;19.50;;;;;12.45;71.84;99959.28;5081189;28;45285;-69
2021/12/25 04:13:58;;;;;;;;;24.50;19.25;;;;;12.46;71.38;99954.78;5077343;28;45331;-69
2021/12/25 04:16:26;;;;;;;;;21.75;20.75;;;;;12.44;71.45;99949.50;5080887;27;46180;-69
2021/12/25 04:18:52;;;;;;;;;23.25;21.50;;;;;12.47;71.50;99954.69;5081153;28;45543;-69
2021/12/25 04:21:18;;;;;;;;;18.75;17.75;;;;;12.47;71.43;99948.50;5081119;28;45569;-69
2021/12/25 04:23:44;;;;;;;;;19.25;18.00;;;;;12.44;71.60;99941.47;5081068;28;45427;-69
2021/12/25 04:26:10;;;;;;;;;20.75;19.50;;;;;12.46;71.59;99939.56;5080526;28;45431;-69
2021/12/25 04:31:24;;;;;;;;;22.25;19.00;;;;;12.41;71.17;99936.28;5080710;28;45506;-69
2021/12/25 05:03:42;;;;;;;;;27.00;19.50;;;;;12.51;71.47;99945.56;5078155;28;45473;-69
2021/12/25 05:06:08;;;;;;;;;19.00;19.00;;;;;12.53;71.47;99945.47;5080535;27;45253;-69
2021/12/25 05:08:33;;;;;;;;;18.00;17.00;;;;;12.54;71.41;99957.91;5080501;28;46171;-69
2021/12/25 05:10:59;;;;;;;;;17.75;16.00;;;;;12.51;71.49;99956.28;5079821;28;45224;-69
2021/12/25 05:13:24;;;;;;;;;20.75;19.50;;;;;12.53;71.42;99951.72;5080457;28;45198;-69
2021/12/25 05:15:50;;;;;;;;;18.00;17.00;;;;;12.50;71.56;99953.69;5080014;28;45236;-69
2021/12/25 05:18:16;;;;;;;;;18.50;16.25;;;;;12.54;71.42;99958.78;5080253;28;45422;-69
2021/12/25 05:20:41;;;;;;;;;19.00;17.00;;;;;12.52;71.67;99958.00;5079992;28;45310;-69
2021/12/25 05:23:07;;;;;;;;;16.75;15.50;;;;;12.52;71.50;99954.47;5080491;28;45293;-69
2021/12/25 05:25:33;;;;;;;;;17.50;15.75;;;;;12.49;71.48;99955.47;5079899;28;45499;-69
2021/12/25 05:28:00;;;;;;;;;17.00;16.00;;;;;12.50;71.54;99954.53;5080039;28;46005;-69
2021/12/25 05:30:26;;;;;;;;;18.50;18.25;;;;;12.54;71.51;99958.78;5079806;28;45540;-69
2021/12/25 05:32:52;;;;;;;;;13.25;9.75;;;;;12.53;71.62;99962.41;5080299;28;45303;-69
2021/12/25 05:35:17;;;;;;;;;25.75;19.75;;;;;12.54;71.83;99955.25;5079896;28;45677;-69
2021/12/25 05:37:42;;;;;;;;;19.00;17.50;;;;;12.57;71.75;99960.44;5081523;28;45237;-69
2021/12/25 05:40:08;;;;;;;;;17.25;15.25;;;;;12.56;71.64;99970.28;5083370;27;45319;-69
2021/12/25 05:42:34;;;;;;;;;16.75;15.50;;;;;12.56;71.62;99961.38;5083943;27;45431;-69
2021/12/25 05:44:59;;;;;;;;;24.75;19.75;;;;;12.58;71.69;99959.50;5083545;28;45485;-69
2021/12/25 05:47:26;;;;;;;;;20.50;16.50;;;;;12.58;71.71;99962.19;5064946;28;46135;-69
2021/12/25 05:49:51;;;;;;;;;21.50;17.00;;;;;12.54;71.53;99964.13;5083272;27;45477;-69
2021/12/25 05:52:17;;;;;;;;;20.25;19.25;;;;;12.55;71.71;99965.88;5083461;28;45359;-69
2021/12/25 05:54:42;;;;;;;;;21.25;17.00;;;;;12.57;71.66;99958.63;5083399;27;45415;-69
2021/12/25 05:57:08;;;;;;;;;19.75;18.25;;;;;12.56;71.91;99956.00;5083330;27;45911;-69
2021/12/25 05:59:33;;;;;;;;;19.00;18.00;;;;;12.59;71.63;99963.88;5083213;27;45295;-69
2021/12/25 06:01:58;;;;;;;;;19.50;16.75;;;;;12.56;71.39;99959.59;5083369;28;45361;-69
2021/12/25 06:04:24;;;;;;;;;21.00;21.00;;;;;12.61;71.73;99972.69;5080469;27;45307;-69
2021/12/25 06:06:49;;;;;;;;;23.00;20.25;;;;;12.58;71.70;99963.03;5083355;28;45328;-69
2021/12/25 06:09:15;;;;;;;;;24.00;21.00;;;;;12.53;71.74;99957.06;5083111;27;45304;-69
2021/12/25 06:11:40;;;;;;;;;21.75;19.50;;;;;12.58;71.71;99971.06;5082872;28;45241;-69
2021/12/25 06:14:11;;;;;;;;;22.75;21.00;;;;;12.58;71.78;99967.53;5083038;28;45474;-69
2021/12/25 06:16:38;;;;;;;;;26.50;23.25;;;;;12.60;71.89;99968.31;5083011;27;46517;-69
2021/12/25 06:19:04;;;;;;;;;19.25;19.25;;;;;12.60;71.82;99962.97;5082910;27;45470;-69
2021/12/25 06:21:31;;;;;;;;;22.00;18.50;;;;;12.63;71.68;99961.91;5083239;27;45356;-69
2021/12/25 06:23:57;;;;;;;;;21.25;21.25;;;;;12.62;71.66;99968.22;5082834;27;45522;-69
2021/12/25 06:26:22;;;;;;;;;28.25;25.75;;;;;12.62;71.90;99976.25;5082645;28;46743;-69
2021/12/25 06:28:48;;;;;;;;;23.75;20.00;;;;;12.62;71.53;99971.75;5082780;28;45193;-69
2021/12/25 06:31:13;;;;;;;;;22.75;20.50;;;;;12.56;71.85;99967.63;5082628;28;45272;-69
2021/12/25 06:33:39;;;;;;;;;22.50;20.50;;;;;12.59;71.83;99983.47;5082731;28;45469;-69
2021/12/25 06:36:04;;;;;;;;;25.00;24.75;;;;;12.53;71.70;99978.47;5082720;28;47191;-69
2021/12/25 06:38:30;;;;;;;;;21.50;18.75;;;;;12.60;72.01;99989.72;5082458;27;45275;-69
2021/12/25 06:40:55;;;;;;;;;17.75;17.50;;;;;12.62;72.06;99993.19;5082811;28;45164;-69
2021/12/25 06:43:21;;;;;;;;;19.75;19.25;;;;;12.63;71.49;99988.69;5082620;28;45416;-69
2021/12/25 06:45:46;;;;;;;;;24.50;23.50;;;;;12.62;71.96;99985.16;5082339;27;45268;-69
2021/12/25 06:48:11;;;;;;;;;19.25;18.25;;;;;12.60;71.88;99984.38;5082325;28;45204;-69
2021/12/25 06:50:37;;;;;;;;;20.00;19.00;;;;;12.63;71.87;99988.69;5082487;27;45485;-69
2021/12/25 06:53:02;;;;;;;;;23.00;18.75;;;;;12.59;71.71;99982.63;5082260;28;45452;-69
2021/12/25 06:55:27;;;;;;;;;22.00;18.75;;;;;12.55;71.79;99981.94;5082366;28;46005;-69
2021/12/25 06:57:55;;;;;;;;;19.75;18.75;;;;;12.58;71.94;99987.13;5082380;28;45371;-69
2021/12/25 07:00:23;;;;;;;;;19.75;18.25;;;;;12.62;72.09;99984.28;5082294;28;45442;-69
2021/12/25 07:02:49;;;;;;;;;14.75;13.25;;;;;12.63;71.78;99976.19;5079611;28;45524;-69
2021/12/25 07:05:14;;;;;;;;;20.00;18.25;;;;;12.62;71.75;99976.25;5082296;28;45307;-69
2021/12/25 07:07:40;;;;;;;;;20.25;17.50;;;;;12.66;71.85;99980.50;5082206;28;45291;-69
2021/12/25 07:10:06;;;;;;;;;20.75;17.25;;;;;12.65;71.80;99986.81;5082416;28;45426;-69
2021/12/25 07:12:36;;;;;;;;;23.00;23.00;;;;;12.65;71.88;99986.81;5081760;28;45566;-69
2021/12/25 07:15:06;;;;;;;;;21.00;19.75;;;;;12.62;71.38;99993.19;5082381;28;46145;-69
2021/12/25 07:17:32;;;;;;;;;22.00;17.25;;;;;12.58;71.97;99988.94;5081807;27;45265;-69
2021/12/25 07:19:58;;;;;;;;;23.00;18.50;;;;;12.58;71.83;99986.28;5082235;28;45395;-69
2021/12/25 07:22:23;;;;;;;;;23.00;19.50;;;;;12.60;72.04;99987.06;5081995;27;45306;-69
2021/12/25 07:24:49;;;;;;;;;22.75;18.50;;;;;12.63;72.11;99994.94;5082016;27;46189;-69
2021/12/25 07:27:14;;;;;;;;;19.75;18.25;;;;;12.60;71.83;99981.69;5081647;27;45388;-69
2021/12/25 07:29:39;;;;;;;;;22.25;20.75;;;;;12.64;71.95;99990.44;5063744;28;45420;-69
2021/12/25 07:32:05;;;;;;;;;23.50;22.00;;;;;12.61;71.86;99988.75;5081587;28;45458;-69
2021/12/25 07:34:31;;;;;;;;;25.50;22.75;;;;;12.59;71.75;99987.97;5081900;27;45438;-69
2021/12/25 07:36:57;;;;;;;;;20.25;17.00;;;;;12.59;71.68;99983.47;5081707;28;45457;-69
2021/12/25 07:39:22;;;;;;;;;18.25;18.25;;;;;12.57;71.89;99981.84;5082017;28;45423;-69
2021/12/25 07:41:47;;;;;;;;;25.50;21.75;;;;;12.62;71.84;99986.97;5081531;27;45406;-69
2021/12/25 07:44:13;;;;;;;;;20.25;20.00;;;;;12.61;71.70;99994.13;5081702;28;46179;-69
2021/12/25 07:46:38;;;;;;;;;19.75;16.75;;;;;12.60;71.95;99998.63;5081515;27;45232;-69
2021/12/25 07:49:04;;;;;;;;;17.75;17.00;;;;;12.58;71.83;99991.63;5081535;28;45226;-69
2021/12/25 07:51:30;;;;;;;;;23.50;21.25;;;;;12.58;71.94;99994.31;5081602;27;45228;-69
2021/12/25 07:53:56;;;;;;;;;21.50;18.50;;;;;12.57;71.77;99993.41;5072003;28;46852;-69
2021/12/25 07:56:25;;;;;;;;;20.25;19.50;;;;;12.62;72.02;99992.31;5081367;28;46709;-69
2021/12/25 07:58:51;;;;;;;;;22.50;17.75;;;;;12.63;71.67;100002.06;5081895;28;45379;-69
2021/12/25 08:01:17;;;;;;;;;26.00;23.00;;;;;12.61;72.03;99994.13;5062189;28;45469;-69
2021/12/25 08:03:42;;;;;;;;;18.25;18.25;;;;;12.58;72.00;99983.59;5079275;27;45184;-69
2021/12/25 08:06:07;;;;;;;;;22.25;18.50;;;;;12.65;72.01;100002.88;5081244;28;45230;-69
2021/12/25 08:08:33;;;;;;;;;27.25;23.00;;;;;12.64;71.91;100006.50;5081622;28;45309;-69
2021/12/25 08:10:58;;;;;;;;;16.75;16.25;;;;;12.61;71.58;100004.81;5080874;28;45234;-69
2021/12/25 08:13:24;;;;;;;;;19.75;17.75;;;;;12.62;72.04;100003.91;5081102;28;45185;-69
2021/12/25 08:15:49;;;;;;;;;26.00;21.50;;;;;12.64;71.90;100007.34;5062754;28;45264;-69
2021/12/25 08:18:15;;;;;;;;;22.25;22.25;;;;;12.65;72.17;100011.78;5081295;28;45223;-69
2021/12/25 08:20:41;;;;;;;;;23.25;22.25;;;;;12.66;71.73;100007.28;5080982;28;45224;-69
2021/12/25 08:23:07;;;;;;;;;22.25;17.50;;;;;12.67;71.92;100009.88;5081182;28;45959;-69
2021/12/25 08:25:33;;;;;;;;;17.00;16.75;;;;;12.68;71.84;100013.41;5080888;28;45424;-69
2021/12/25 08:28:00;;;;;;;;;22.50;20.75;;;;;12.67;72.03;100004.50;5081053;28;45336;-69
2021/12/25 08:30:27;;;;;;;;;23.25;20.00;;;;;12.69;72.00;100009.78;5080496;28;45296;-69
2021/12/25 08:32:55;;;;;;;;;32.00;26.25;;;;;12.69;72.01;100012.47;5080737;28;46172;-69
2021/12/25 08:35:22;;;;;;;;;19.50;17.75;;;;;12.70;71.85;100006.19;5080721;28;45555;-69
2021/12/25 08:37:48;;;;;;;;;29.00;23.75;;;;;12.68;72.18;100005.38;5079641;28;45493;-69
2021/12/25 08:40:15;;;;;;;;;21.50;21.00;;;;;12.71;72.10;100013.25;5080590;27;45249;-69
2021/12/25 08:42:49;;;;;;;;;23.25;21.00;;;;;12.68;71.79;100011.63;5080746;28;45376;-69
2021/12/25 08:48:00;;;;;;;;;18.25;18.00;;;;;12.70;71.75;100017.75;5080768;27;45327;-69
2021/12/25 08:50:26;;;;;;;;;21.00;19.50;;;;;12.64;72.10;100011.84;5080570;28;45296;-69
2021/12/25 08:52:51;;;;;;;;;27.50;21.50;;;;;12.69;72.08;100021.34;5080159;28;45313;-69
2021/12/25 08:55:19;;;;;;;;;28.25;25.50;;;;;12.68;72.04;100019.66;5080616;28;45304;-69
2021/12/25 08:57:44;;;;;;;;;20.75;19.75;;;;;12.63;72.06;100007.44;5080643;28;45299;-69
2021/12/25 09:00:10;;;;;;;;;24.00;21.00;;;;;12.65;71.71;100018.94;5080488;28;45473;-69
2021/12/25 09:02:36;;;;;;;;;25.50;21.25;;;;;12.65;72.04;100018.94;5061743;27;47387;-69
2021/12/25 09:05:02;;;;;;;;;22.50;20.75;;;;;12.66;71.94;100026.00;5080431;28;45157;-69
2021/12/25 09:07:27;;;;;;;;;28.50;24.25;;;;;12.66;71.95;100028.69;5080529;28;45249;-69
2021/12/25 09:09:52;;;;;;;;;22.25;19.50;;;;;12.65;71.82;100021.63;5080273;28;45526;-69
2021/12/25 09:12:20;;;;;;;;;27.25;21.75;;;;;12.64;72.06;100020.72;5078711;27;46016;-69
2021/12/25 09:14:45;;;;;;;;;24.00;21.25;;;;;12.64;71.96;100027.91;5080278;28;45302;-69
2021/12/25 09:17:12;;;;;;;;;29.25;25.00;;;;;12.65;72.09;100026.97;5080150;28;45391;-69
2021/12/25 09:19:37;;;;;;;;;28.25;24.75;;;;;12.65;72.07;100027.84;5080359;28;45246;-69
2021/12/25 09:22:03;;;;;;;;;26.50;22.25;;;;;12.67;72.41;100033.09;5079941;28;45463;-69
2021/12/25 09:24:28;;;;;;;;;27.25;22.75;;;;;12.67;72.06;100031.28;5080428;27;45257;-69
2021/12/25 09:26:54;;;;;;;;;22.50;22.50;;;;;12.66;72.07;100034.03;5080004;28;45327;-69
2021/12/25 09:29:20;;;;;;;;;23.50;20.75;;;;;12.66;72.13;100045.63;5080115;28;45437;-69
2021/12/25 09:31:45;;;;;;;;;22.25;20.75;;;;;12.62;72.29;100033.34;5079618;28;45210;-69
2021/12/25 09:34:11;;;;;;;;;24.00;21.25;;;;;12.66;72.21;100040.25;5080064;28;45342;-69
2021/12/25 09:36:36;;;;;;;;;23.75;22.00;;;;;12.64;72.23;100035.94;5080064;28;45235;-69
2021/12/25 09:39:05;;;;;;;;;24.50;20.25;;;;;12.67;72.28;100041.16;5080284;28;45296;-69
2021/12/25 09:41:32;;;;;;;;;22.75;20.50;;;;;12.67;72.21;100038.47;5079822;28;45356;-69
2021/12/25 09:43:58;;;;;;;;;23.50;21.75;;;;;12.66;72.17;100031.38;5080181;28;45315;-69
2021/12/25 09:46:23;;;;;;;;;18.75;17.75;;;;;12.70;72.26;100043.66;5079809;28;45294;-69
2021/12/25 09:48:52;;;;;;;;;20.00;18.25;;;;;12.70;72.40;100041.84;5079774;28;45237;-69
2021/12/25 09:51:18;;;;;;;;;16.00;15.25;;;;;12.73;72.25;100044.38;5079681;28;46116;-69
2021/12/25 09:54:20;;;;;;;;;21.75;19.75;;;;;12.73;72.08;100040.81;5079844;28;45430;-69
2021/12/25 09:56:48;;;;;;;;;19.25;19.00;;;;;12.76;72.01;100036.19;5048901;28;45575;-69
2021/12/25 09:59:14;;;;;;;;;18.50;18.25;;;;;12.79;71.99;100038.66;5079723;28;45569;-69
2021/12/25 10:01:47;;;;;;;;;14.75;14.75;;;;;12.85;71.80;100052.72;5079440;28;46280;-69
2021/12/25 10:04:41;;;;;;;;;18.75;16.00;;;;;12.87;71.81;100048.13;5077865;28;45860;-69
2021/12/25 10:07:15;;;;;;;;;17.25;16.00;;;;;12.89;71.90;100048.91;5079825;28;45292;-69
2021/12/25 10:09:41;;;;;;;;;17.25;14.75;;;;;12.87;71.56;100049.00;5079797;28;45502;-69
2021/12/25 10:12:15;;;;;;;;;16.00;14.50;;;;;12.89;71.61;100043.53;5079037;28;46123;-69
2021/12/25 10:14:50;;;;;;;;;14.25;13.75;;;;;12.87;71.62;100051.66;5079699;28;45228;-69
2021/12/25 10:17:24;;;;;;;;;16.25;14.50;;;;;12.90;71.80;100043.47;5079393;28;45172;-69
2021/12/25 10:20:14;;;;;;;;;17.25;13.00;;;;;12.93;72.19;100046.00;5079538;28;45161;-69
2021/12/25 10:22:52;;;;;;;;;16.25;16.00;;;;;12.92;72.21;100036.22;5063141;28;45631;-69
2021/12/25 10:25:18;;;;;;;;;17.25;14.00;;;;;12.92;72.18;100032.69;5082792;27;45559;-69
2021/12/25 10:27:53;;;;;;;;;18.75;13.75;;;;;12.93;71.92;100031.72;5083028;27;45386;-69
2021/12/25 10:30:18;;;;;;;;;15.25;13.50;;;;;12.94;71.92;100031.63;5082521;27;45327;-69
2021/12/25 10:32:44;;;;;;;;;17.50;16.00;;;;;12.91;71.86;100031.81;5082830;28;46029;-69
2021/12/25 10:35:25;;;;;;;;;16.25;16.00;;;;;12.93;71.98;100035.28;5082760;28;45287;-69
2021/12/25 10:37:52;;;;;;;;;17.00;13.75;;;;;12.93;72.06;100024.56;5083028;27;45343;-69
2021/12/25 10:40:32;;;;;;;;;14.75;13.50;;;;;12.94;71.85;100037.00;5082589;28;45449;-69
2021/12/25 10:43:00;;;;;;;;;13.25;13.25;;;;;12.96;71.66;100037.78;5082580;27;46173;-69
2021/12/25 10:45:29;;;;;;;;;16.00;14.25;;;;;12.95;72.02;100033.38;5082509;28;45318;-69
2021/12/25 10:48:10;;;;;;;;;14.00;11.75;;;;;12.98;71.99;100035.03;5082702;28;45251;-69
2021/12/25 10:50:43;;;;;;;;;16.00;14.50;;;;;13.01;71.88;100039.34;5082520;27;45342;-69
2021/12/25 10:53:30;;;;;;;;;15.25;13.75;;;;;12.98;72.17;100027.84;5082229;27;46019;-69
2021/12/25 10:56:12;;;;;;;;;14.25;14.25;;;;;13.02;72.21;100033.06;5082433;27;45432;-69
2021/12/25 10:58:38;;;;;;;;;19.25;15.25;;;;;13.03;72.12;100024.03;5082802;28;45269;-69
2021/12/25 11:01:05;;;;;;;;;17.00;15.75;;;;;13.03;71.87;100024.03;5064019;28;45318;-69
2021/12/25 11:03:33;;;;;;;;;15.50;15.50;;;;;13.03;71.99;100018.69;5079864;28;46256;-69
2021/12/25 11:06:09;;;;;;;;;15.00;14.75;;;;;13.05;72.35;100016.81;5082449;27;45552;-69
2021/12/25 11:08:37;;;;;;;;;17.50;17.00;;;;;13.04;72.03;100012.41;5082474;28;45231;-69
2021/12/25 11:11:04;;;;;;;;;15.25;13.75;;;;;13.04;71.94;100005.22;5081864;28;45290;-69
2021/12/25 11:13:38;;;;;;;;;12.00;10.75;;;;;13.07;71.99;100007.72;5081993;28;46106;-69
2021/12/25 11:16:08;;;;;;;;;19.00;17.00;;;;;13.08;71.79;100009.47;5082062;28;45391;-69
2021/12/25 11:19:03;;;;;;;;;15.75;14.75;;;;;13.09;72.16;100003.16;5082087;28;45283;-69
2021/12/25 11:21:33;;;;;;;;;17.25;17.25;;;;;13.06;71.99;99997.09;5065438;28;45484;-69
2021/12/25 11:24:17;;;;;;;;;15.50;15.00;;;;;13.10;72.15;99996.84;5081918;28;45342;-69
2021/12/25 11:26:54;;;;;;;;;20.75;17.50;;;;;13.07;71.92;99990.81;5081643;28;45426;-69
2021/12/25 11:29:23;;;;;;;;;18.00;16.25;;;;;13.10;72.05;99993.31;5082174;28;45243;-69
2021/12/25 11:31:51;;;;;;;;;16.00;16.00;;;;;13.11;72.08;100000.38;5081608;28;45474;-69
2021/12/25 11:34:18;;;;;;;;;19.75;17.00;;;;;13.08;72.21;99990.72;5081409;28;46219;-69
2021/12/25 11:36:48;;;;;;;;;15.50;15.50;;;;;13.11;71.97;99990.56;5081276;27;45378;-69
2021/12/25 11:39:15;;;;;;;;;19.00;16.75;;;;;13.11;72.03;99985.19;5081974;28;45303;-69
2021/12/25 11:41:41;;;;;;;;;14.75;14.75;;;;;13.12;72.09;99981.53;5081637;27;45419;-69
2021/12/25 11:44:51;;;;;;;;;17.25;16.25;;;;;13.05;72.00;99965.91;5081800;28;46241;-69
2021/12/25 11:47:39;;;;;;;;;25.25;23.00;;;;;13.11;72.26;99981.63;5052054;28;45672;-69
2021/12/25 11:50:24;;;;;;;;;22.50;19.00;;;;;13.10;71.94;99977.25;5081454;28;45303;-69
2021/12/25 11:56:18;;;;;;;;;24.25;23.25;;;;;13.08;72.24;99968.41;5081466;28;46422;-69
2021/12/25 11:58:52;;;;;;;;;23.75;22.00;;;;;13.13;72.13;99969.00;5072207;27;45519;-69
2021/12/25 12:01:25;;;;;;;;;20.50;19.50;;;;;13.10;71.89;99969.19;5081272;28;45434;-69
2021/12/25 12:04:01;;;;;;;;;21.50;19.75;;;;;13.14;72.02;99973.44;5081347;28;45327;-69
2021/12/25 12:06:44;;;;;;;;;22.00;22.00;;;;;13.15;71.80;99967.13;5068987;28;45363;-69
2021/12/25 12:09:14;;;;;;;;;24.25;23.00;;;;;13.13;71.79;99972.56;5081253;28;45256;-69
2021/12/25 12:11:46;;;;;;;;;26.00;23.00;;;;;13.13;71.89;99969.00;5081060;27;45403;-69
2021/12/25 12:14:22;;;;;;;;;27.50;26.00;;;;;13.13;71.92;99974.38;5080356;27;45165;-69
2021/12/25 12:16:51;;;;;;;;;31.75;25.75;;;;;13.11;72.00;99977.16;5081052;28;45246;-69
2021/12/25 12:19:36;;;;;;;;;29.50;24.25;;;;;13.12;71.86;99973.50;5081292;28;45368;-69
2021/12/25 12:25:27;;;;;;;;;28.75;25.50;;;;;13.14;72.14;99968.06;5081234;28;45328;-69
2021/12/25 12:27:58;;;;;;;;;27.00;24.00;;;;;13.13;72.21;99971.69;5081141;28;45539;-69
2021/12/25 12:30:42;;;;;;;;;29.25;27.50;;;;;13.15;72.32;99970.66;5080542;28;45750;-69
2021/12/25 12:33:10;;;;;;;;;26.50;24.25;;;;;13.15;72.10;99975.16;5062924;28;45330;-69
2021/12/25 12:35:37;;;;;;;;;30.00;28.50;;;;;13.13;72.20;99966.31;5081130;28;45334;-68
2021/12/25 12:38:36;;;;;;;;;34.00;31.50;;;;;13.14;72.26;99968.91;5080873;28;46179;-69
2021/12/25 12:41:32;;;;;;;;;32.25;31.75;;;;;13.16;72.41;99966.16;5080913;28;45366;-69
2021/12/25 12:44:03;;;;;;;;;33.50;31.25;;;;;13.18;72.23;99955.34;5081211;28;45346;-69
2021/12/25 12:46:50;;;;;;;;;34.00;30.75;;;;;13.18;72.43;99964.28;5080419;28;45245;-69
2021/12/25 12:49:39;;;;;;;;;35.25;32.25;;;;;13.19;72.29;99957.94;5080576;28;45341;-69
2021/12/25 12:52:20;;;;;;;;;36.25;31.25;;;;;13.18;72.17;99961.59;5066302;28;45533;-69